sensor_id;sensor_type;location;lat;lon;timestamp;pressure;altitude;pressure_sealevel;temperature;humidity
19600;BME280;9947;57.722;12.012;2022-08-30T00:01:08;102052.56;;;8.12;76.95
19600;BME280;9947;57.722;12.012;2022-08-30T00:03:37;102054.53;;;8.08;77.00
19600;BME280;9947;57.722;12.012;2022-08-30T00:06:07;102054.53;;;8.08;77.19
19600;BME280;9947;57.722;12.012;2022-08-30T00:08:35;102060.78;;;8.09;76.86
19600;BME280;9947;57.722;12.012;2022-08-30T00:11:05;102054.63;;;8.05;76.88
19600;BME280;9947;57.722;12.012;2022-08-30T00:13:32;102062.78;;;8.03;76.99
19600;BME280;9947;57.722;12.012;2022-08-30T00:15:59;102066.25;;;8.07;76.60
19600;BME280;9947;57.722;12.012;2022-08-30T00:18:27;102056.53;;;8.03;76.59
19600;BME280;9947;57.722;12.012;2022-08-30T00:20:54;102056.75;;;7.98;76.82
19600;BME280;9947;57.722;12.012;2022-08-30T00:23:22;102051.56;;;7.94;76.49
19600;BME280;9947;57.722;12.012;2022-08-30T00:25:50;102056.22;;;7.90;76.63
19600;BME280;9947;57.722;12.012;2022-08-30T00:28:16;102055.56;;;7.85;76.60
19600;BME280;9947;57.722;12.012;2022-08-30T00:30:45;102054.81;;;7.82;76.58
19600;BME280;9947;57.722;12.012;2022-08-30T00:33:13;102050.38;;;7.81;76.81
19600;BME280;9947;57.722;12.012;2022-08-30T00:35:43;102067.50;;;7.78;76.56
19600;BME280;9947;57.722;12.012;2022-08-30T00:38:11;102058.31;;;7.84;76.47
19600;BME280;9947;57.722;12.012;2022-08-30T00:40:42;102058.63;;;7.76;76.66
19600;BME280;9947;57.722;12.012;2022-08-30T00:43:13;102057.75;;;7.76;76.75
19600;BME280;9947;57.722;12.012;2022-08-30T00:45:41;102054.19;;;7.75;76.73
19600;BME280;9947;57.722;12.012;2022-08-30T00:48:10;102058.50;;;7.79;76.70
19600;BME280;9947;57.722;12.012;2022-08-30T00:50:42;102055.00;;;7.77;76.84
19600;BME280;9947;57.722;12.012;2022-08-30T00:53:14;102057.69;;;7.77;76.55
19600;BME280;9947;57.722;12.012;2022-08-30T00:55:43;102059.72;;;7.72;76.76
19600;BME280;9947;57.722;12.012;2022-08-30T00:58:12;102053.59;;;7.68;76.59
19600;BME280;9947;57.722;12.012;2022-08-30T01:00:41;102054.06;;;7.58;76.70
19600;BME280;9947;57.722;12.012;2022-08-30T01:03:08;102057.50;;;7.61;76.46
19600;BME280;9947;57.722;12.012;2022-08-30T01:05:36;102059.38;;;7.59;76.37
19600;BME280;9947;57.722;12.012;2022-08-30T01:08:07;102068.19;;;7.63;76.77
19600;BME280;9947;57.722;12.012;2022-08-30T01:10:37;102064.75;;;7.59;76.60
19600;BME280;9947;57.722;12.012;2022-08-30T01:13:07;102068.47;;;7.57;76.49
19600;BME280;9947;57.722;12.012;2022-08-30T01:15:35;102073.66;;;7.61;76.49
19600;BME280;9947;57.722;12.012;2022-08-30T01:18:02;102070.22;;;7.58;76.22
19600;BME280;9947;57.722;12.012;2022-08-30T01:20:36;102074.66;;;7.59;76.00
19600;BME280;9947;57.722;12.012;2022-08-30T01:23:15;102074.09;;;7.51;76.61
19600;BME280;9947;57.722;12.012;2022-08-30T01:25:44;102086.66;;;7.50;76.21
19600;BME280;9947;57.722;12.012;2022-08-30T01:28:17;102075.84;;;7.52;76.29
19600;BME280;9947;57.722;12.012;2022-08-30T01:30:46;102073.34;;;7.47;76.33
19600;BME280;9947;57.722;12.012;2022-08-30T01:33:15;102076.16;;;7.44;76.33
19600;BME280;9947;57.722;12.012;2022-08-30T01:35:47;102076.03;;;7.47;76.37
19600;BME280;9947;57.722;12.012;2022-08-30T01:38:20;102080.41;;;7.50;76.39
19600;BME280;9947;57.722;12.012;2022-08-30T01:40:47;102078.84;;;7.44;76.12
19600;BME280;9947;57.722;12.012;2022-08-30T01:43:15;102079.00;;;7.41;76.53
19600;BME280;9947;57.722;12.012;2022-08-30T01:45:43;102073.41;;;7.46;76.24
19600;BME280;9947;57.722;12.012;2022-08-30T01:48:10;102077.66;;;7.51;76.35
19600;BME280;9947;57.722;12.012;2022-08-30T01:50:38;102086.00;;;7.45;76.17
19600;BME280;9947;57.722;12.012;2022-08-30T01:53:05;102087.88;;;7.43;76.50
19600;BME280;9947;57.722;12.012;2022-08-30T01:55:33;102085.13;;;7.45;76.26
19600;BME280;9947;57.722;12.012;2022-08-30T01:58:01;102084.97;;;7.48;76.18
19600;BME280;9947;57.722;12.012;2022-08-30T02:00:27;102075.97;;;7.49;76.01
19600;BME280;9947;57.722;12.012;2022-08-30T02:02:55;102076.84;;;7.49;76.02
19600;BME280;9947;57.722;12.012;2022-08-30T02:05:24;102086.28;;;7.59;75.74
19600;BME280;9947;57.722;12.012;2022-08-30T02:07:51;102081.06;;;7.56;76.10
19600;BME280;9947;57.722;12.012;2022-08-30T02:10:18;102081.72;;;7.61;75.91
19600;BME280;9947;57.722;12.012;2022-08-30T02:12:46;102077.00;;;7.66;75.89
19600;BME280;9947;57.722;12.012;2022-08-30T02:15:13;102077.81;;;7.68;75.92
19600;BME280;9947;57.722;12.012;2022-08-30T02:17:40;102082.19;;;7.71;75.97
19600;BME280;9947;57.722;12.012;2022-08-30T02:20:09;102080.22;;;7.74;75.98
19600;BME280;9947;57.722;12.012;2022-08-30T02:22:36;102082.69;;;7.81;75.52
19600;BME280;9947;57.722;12.012;2022-08-30T02:25:03;102079.09;;;7.80;76.00
19600;BME280;9947;57.722;12.012;2022-08-30T02:27:30;102073.09;;;7.73;76.11
19600;BME280;9947;57.722;12.012;2022-08-30T02:29:58;102080.00;;;7.81;75.95
19600;BME280;9947;57.722;12.012;2022-08-30T02:32:25;102068.38;;;7.79;75.73
19600;BME280;9947;57.722;12.012;2022-08-30T02:34:52;102075.47;;;7.81;75.88
19600;BME280;9947;57.722;12.012;2022-08-30T02:37:19;102069.53;;;7.73;75.82
19600;BME280;9947;57.722;12.012;2022-08-30T02:39:46;102068.31;;;7.80;75.88
19600;BME280;9947;57.722;12.012;2022-08-30T02:42:13;102058.31;;;7.84;75.71
19600;BME280;9947;57.722;12.012;2022-08-30T02:44:39;102062.63;;;7.88;75.47
19600;BME280;9947;57.722;12.012;2022-08-30T02:47:08;102065.25;;;7.89;75.62
19600;BME280;9947;57.722;12.012;2022-08-30T02:49:35;102064.50;;;7.86;75.70
19600;BME280;9947;57.722;12.012;2022-08-30T02:52:02;102058.44;;;7.81;75.36
19600;BME280;9947;57.722;12.012;2022-08-30T02:54:30;102053.25;;;7.76;75.13
19600;BME280;9947;57.722;12.012;2022-08-30T02:57:00;102054.84;;;7.80;75.33
19600;BME280;9947;57.722;12.012;2022-08-30T02:59:29;102070.28;;;7.77;75.32
19600;BME280;9947;57.722;12.012;2022-08-30T03:01:58;102074.03;;;7.72;75.21
19600;BME280;9947;57.722;12.012;2022-08-30T03:04:27;102072.50;;;7.67;75.23
19600;BME280;9947;57.722;12.012;2022-08-30T03:06:54;102074.44;;;7.63;75.06
19600;BME280;9947;57.722;12.012;2022-08-30T03:09:21;102068.53;;;7.55;75.28
19600;BME280;9947;57.722;12.012;2022-08-30T03:11:48;102074.78;;;7.56;74.83
19600;BME280;9947;57.722;12.012;2022-08-30T03:14:14;102072.13;;;7.54;75.46
19600;BME280;9947;57.722;12.012;2022-08-30T03:16:41;102076.59;;;7.55;75.06
19600;BME280;9947;57.722;12.012;2022-08-30T03:19:08;102078.59;;;7.50;74.92
19600;BME280;9947;57.722;12.012;2022-08-30T03:21:37;102077.66;;;7.51;74.94
19600;BME280;9947;57.722;12.012;2022-08-30T03:24:04;102082.34;;;7.46;75.07
19600;BME280;9947;57.722;12.012;2022-08-30T03:26:31;102082.50;;;7.43;74.94
19600;BME280;9947;57.722;12.012;2022-08-30T03:28:58;102085.31;;;7.40;74.62
19600;BME280;9947;57.722;12.012;2022-08-30T03:31:28;102080.88;;;7.39;74.54
19600;BME280;9947;57.722;12.012;2022-08-30T03:33:55;102079.13;;;7.38;74.68
19600;BME280;9947;57.722;12.012;2022-08-30T03:36:22;102081.00;;;7.36;74.99
19600;BME280;9947;57.722;12.012;2022-08-30T03:38:50;102077.50;;;7.34;74.83
19600;BME280;9947;57.722;12.012;2022-08-30T03:41:17;102082.16;;;7.30;74.89
19600;BME280;9947;57.722;12.012;2022-08-30T03:43:43;102085.78;;;7.29;75.11
19600;BME280;9947;57.722;12.012;2022-08-30T03:46:12;102082.25;;;7.27;75.52
19600;BME280;9947;57.722;12.012;2022-08-30T03:48:40;102099.53;;;7.22;75.67
19600;BME280;9947;57.722;12.012;2022-08-30T03:51:08;102091.50;;;7.20;75.38
19600;BME280;9947;57.722;12.012;2022-08-30T03:53:35;102104.16;;;7.18;75.55
19600;BME280;9947;57.722;12.012;2022-08-30T03:56:03;102093.53;;;7.15;75.34
19600;BME280;9947;57.722;12.012;2022-08-30T03:58:30;102092.78;;;7.11;75.23
19600;BME280;9947;57.722;12.012;2022-08-30T04:00:57;102092.91;;;7.08;75.46
19600;BME280;9947;57.722;12.012;2022-08-30T04:03:24;102096.53;;;7.07;75.97
19600;BME280;9947;57.722;12.012;2022-08-30T04:05:51;102101.03;;;7.07;75.99
19600;BME280;9947;57.722;12.012;2022-08-30T04:08:18;102102.13;;;7.01;75.95
19600;BME280;9947;57.722;12.012;2022-08-30T04:10:47;102103.84;;;7.04;76.10
19600;BME280;9947;57.722;12.012;2022-08-30T04:13:15;102109.16;;;7.05;76.00
19600;BME280;9947;57.722;12.012;2022-08-30T04:15:42;102104.78;;;7.03;75.75
19600;BME280;9947;57.722;12.012;2022-08-30T04:18:10;102102.19;;;7.00;76.43
19600;BME280;9947;57.722;12.012;2022-08-30T04:20:40;102106.56;;;7.02;75.85
19600;BME280;9947;57.722;12.012;2022-08-30T04:23:08;102109.03;;;7.08;75.67
19600;BME280;9947;57.722;12.012;2022-08-30T04:25:38;102110.78;;;7.09;75.73
19600;BME280;9947;57.722;12.012;2022-08-30T04:28:06;102108.84;;;7.13;75.71
19600;BME280;9947;57.722;12.012;2022-08-30T04:30:37;102112.47;;;7.12;75.96
19600;BME280;9947;57.722;12.012;2022-08-30T04:33:04;102109.78;;;7.12;75.81
19600;BME280;9947;57.722;12.012;2022-08-30T04:35:32;102120.53;;;7.12;75.54
19600;BME280;9947;57.722;12.012;2022-08-30T04:37:59;102125.19;;;7.08;75.42
19600;BME280;9947;57.722;12.012;2022-08-30T04:40:28;102130.56;;;7.08;75.86
19600;BME280;9947;57.722;12.012;2022-08-30T04:42:55;102125.84;;;7.14;76.11
19600;BME280;9947;57.722;12.012;2022-08-30T04:45:24;102129.97;;;7.22;76.07
19600;BME280;9947;57.722;12.012;2022-08-30T04:47:53;102132.53;;;7.25;76.02
19600;BME280;9947;57.722;12.012;2022-08-30T04:50:20;102135.00;;;7.31;76.22
19600;BME280;9947;57.722;12.012;2022-08-30T04:52:47;102136.63;;;7.35;75.78
19600;BME280;9947;57.722;12.012;2022-08-30T04:55:14;102138.31;;;7.38;75.55
19600;BME280;9947;57.722;12.012;2022-08-30T04:57:41;102137.50;;;7.36;75.87
19600;BME280;9947;57.722;12.012;2022-08-30T05:00:10;102134.69;;;7.39;75.56
19600;BME280;9947;57.722;12.012;2022-08-30T05:02:41;102146.19;;;7.42;75.47
19600;BME280;9947;57.722;12.012;2022-08-30T05:05:09;102142.44;;;7.47;74.80
19600;BME280;9947;57.722;12.012;2022-08-30T05:08:12;102147.13;;;7.63;74.83
19600;BME280;9947;57.722;12.012;2022-08-30T05:10:40;102150.56;;;7.67;74.48
19600;BME280;9947;57.722;12.012;2022-08-30T05:13:08;102147.59;;;7.73;74.36
19600;BME280;9947;57.722;12.012;2022-08-30T05:15:35;102145.81;;;7.94;73.75
19600;BME280;9947;57.722;12.012;2022-08-30T05:18:04;102153.16;;;8.11;73.52
19600;BME280;9947;57.722;12.012;2022-08-30T05:20:34;102144.66;;;8.20;72.91
19600;BME280;9947;57.722;12.012;2022-08-30T05:23:01;102155.91;;;8.29;73.13
19600;BME280;9947;57.722;12.012;2022-08-30T05:25:29;102157.16;;;8.43;72.99
19600;BME280;9947;57.722;12.012;2022-08-30T05:27:57;102148.41;;;8.56;73.20
19600;BME280;9947;57.722;12.012;2022-08-30T05:30:27;102149.91;;;8.82;74.08
19600;BME280;9947;57.722;12.012;2022-08-30T05:32:54;102158.50;;;9.09;74.20
19600;BME280;9947;57.722;12.012;2022-08-30T05:35:22;102152.81;;;10.05;74.31
19600;BME280;9947;57.722;12.012;2022-08-30T05:37:52;102162.03;;;11.64;81.71
19600;BME280;9947;57.722;12.012;2022-08-30T05:40:19;102152.88;;;12.27;91.86
19600;BME280;9947;57.722;12.012;2022-08-30T05:43:09;102162.13;;;12.53;97.58
19600;BME280;9947;57.722;12.012;2022-08-30T05:45:46;102154.91;;;13.37;100.00
19600;BME280;9947;57.722;12.012;2022-08-30T05:48:20;102164.75;;;14.19;100.00
19600;BME280;9947;57.722;12.012;2022-08-30T05:51:00;102171.31;;;14.55;100.00
19600;BME280;9947;57.722;12.012;2022-08-30T05:53:29;102166.72;;;15.19;100.00
19600;BME280;9947;57.722;12.012;2022-08-30T05:55:59;102171.25;;;14.16;100.00
19600;BME280;9947;57.722;12.012;2022-08-30T05:58:26;102173.03;;;15.06;100.00
19600;BME280;9947;57.722;12.012;2022-08-30T06:00:53;102176.47;;;15.58;100.00
19600;BME280;9947;57.722;12.012;2022-08-30T06:03:20;102173.56;;;15.61;100.00
19600;BME280;9947;57.722;12.012;2022-08-30T06:05:46;102172.31;;;15.41;100.00
19600;BME280;9947;57.722;12.012;2022-08-30T06:08:13;102175.78;;;15.43;100.00
19600;BME280;9947;57.722;12.012;2022-08-30T06:10:41;102168.00;;;15.86;99.79
19600;BME280;9947;57.722;12.012;2022-08-30T06:13:09;102176.00;;;15.77;100.00
19600;BME280;9947;57.722;12.012;2022-08-30T06:15:36;102165.06;;;15.16;100.00
19600;BME280;9947;57.722;12.012;2022-08-30T06:18:03;102168.84;;;14.64;100.00
19600;BME280;9947;57.722;12.012;2022-08-30T06:20:31;102174.69;;;13.66;100.00
19600;BME280;9947;57.722;12.012;2022-08-30T06:22:59;102171.16;;;14.18;100.00
19600;BME280;9947;57.722;12.012;2022-08-30T06:25:26;102174.91;;;14.55;100.00
19600;BME280;9947;57.722;12.012;2022-08-30T06:27:54;102176.34;;;14.86;100.00
19600;BME280;9947;57.722;12.012;2022-08-30T06:30:21;102179.69;;;15.15;100.00
19600;BME280;9947;57.722;12.012;2022-08-30T06:32:48;102178.09;;;14.87;100.00
19600;BME280;9947;57.722;12.012;2022-08-30T06:35:15;102181.25;;;14.68;100.00
19600;BME280;9947;57.722;12.012;2022-08-30T06:37:42;102181.22;;;14.81;100.00
19600;BME280;9947;57.722;12.012;2022-08-30T06:40:12;102185.38;;;14.74;100.00
19600;BME280;9947;57.722;12.012;2022-08-30T06:42:41;102185.81;;;14.68;100.00
19600;BME280;9947;57.722;12.012;2022-08-30T06:45:10;102186.97;;;13.86;100.00
19600;BME280;9947;57.722;12.012;2022-08-30T06:47:38;102187.41;;;13.93;100.00
19600;BME280;9947;57.722;12.012;2022-08-30T06:50:06;102192.81;;;13.80;100.00
19600;BME280;9947;57.722;12.012;2022-08-30T06:52:33;102187.06;;;13.84;100.00
19600;BME280;9947;57.722;12.012;2022-08-30T06:55:00;102183.25;;;13.87;100.00
19600;BME280;9947;57.722;12.012;2022-08-30T06:57:31;102195.13;;;13.99;100.00
19600;BME280;9947;57.722;12.012;2022-08-30T06:59:57;102186.78;;;14.02;100.00
19600;BME280;9947;57.722;12.012;2022-08-30T07:02:26;102198.56;;;14.15;100.00
19600;BME280;9947;57.722;12.012;2022-08-30T07:04:52;102195.75;;;14.29;100.00
19600;BME280;9947;57.722;12.012;2022-08-30T07:07:19;102194.88;;;14.29;100.00
19600;BME280;9947;57.722;12.012;2022-08-30T07:09:47;102192.34;;;14.53;100.00
19600;BME280;9947;57.722;12.012;2022-08-30T07:12:14;102196.59;;;14.57;100.00
19600;BME280;9947;57.722;12.012;2022-08-30T07:14:41;102199.75;;;14.76;100.00
19600;BME280;9947;57.722;12.012;2022-08-30T07:17:08;102187.44;;;14.96;100.00
19600;BME280;9947;57.722;12.012;2022-08-30T07:19:50;102185.41;;;14.87;100.00
19600;BME280;9947;57.722;12.012;2022-08-30T07:22:17;102194.63;;;14.97;100.00
19600;BME280;9947;57.722;12.012;2022-08-30T07:24:44;102182.31;;;15.04;100.00
19600;BME280;9947;57.722;12.012;2022-08-30T07:27:12;102186.53;;;15.21;100.00
19600;BME280;9947;57.722;12.012;2022-08-30T07:29:38;102185.31;;;15.37;100.00
19600;BME280;9947;57.722;12.012;2022-08-30T07:32:06;102185.41;;;15.36;100.00
19600;BME280;9947;57.722;12.012;2022-08-30T07:34:33;102190.94;;;15.34;100.00
19600;BME280;9947;57.722;12.012;2022-08-30T07:37:01;102192.31;;;15.16;100.00
19600;BME280;9947;57.722;12.012;2022-08-30T07:39:28;102189.00;;;15.36;100.00
19600;BME280;9947;57.722;12.012;2022-08-30T07:41:54;102190.53;;;15.40;100.00
19600;BME280;9947;57.722;12.012;2022-08-30T07:44:21;102192.91;;;15.45;100.00
19600;BME280;9947;57.722;12.012;2022-08-30T07:46:48;102182.84;;;15.58;100.00
19600;BME280;9947;57.722;12.012;2022-08-30T07:49:15;102184.06;;;15.78;100.00
19600;BME280;9947;57.722;12.012;2022-08-30T07:51:42;102189.53;;;15.78;100.00
19600;BME280;9947;57.722;12.012;2022-08-30T07:54:10;102185.56;;;15.82;100.00
19600;BME280;9947;57.722;12.012;2022-08-30T07:56:37;102182.84;;;16.06;100.00
19600;BME280;9947;57.722;12.012;2022-08-30T07:59:04;102186.06;;;16.11;100.00
19600;BME280;9947;57.722;12.012;2022-08-30T08:01:31;102188.81;;;15.87;100.00
19600;BME280;9947;57.722;12.012;2022-08-30T08:03:58;102181.00;;;15.83;100.00
19600;BME280;9947;57.722;12.012;2022-08-30T08:06:24;102193.47;;;15.98;100.00
19600;BME280;9947;57.722;12.012;2022-08-30T08:08:52;102195.44;;;15.96;100.00
19600;BME280;9947;57.722;12.012;2022-08-30T08:11:23;102187.41;;;16.06;100.00
19600;BME280;9947;57.722;12.012;2022-08-30T08:13:52;102183.41;;;16.33;100.00
19600;BME280;9947;57.722;12.012;2022-08-30T08:16:19;102183.91;;;16.27;100.00
19600;BME280;9947;57.722;12.012;2022-08-30T08:18:46;102190.66;;;16.11;100.00
19600;BME280;9947;57.722;12.012;2022-08-30T08:21:13;102190.84;;;16.31;100.00
19600;BME280;9947;57.722;12.012;2022-08-30T08:23:40;102190.34;;;16.26;100.00
19600;BME280;9947;57.722;12.012;2022-08-30T08:26:08;102202.50;;;16.22;100.00
19600;BME280;9947;57.722;12.012;2022-08-30T08:28:37;102199.31;;;16.04;100.00
19600;BME280;9947;57.722;12.012;2022-08-30T08:31:13;102195.31;;;16.32;100.00
19600;BME280;9947;57.722;12.012;2022-08-30T08:33:39;102201.38;;;16.25;100.00
19600;BME280;9947;57.722;12.012;2022-08-30T08:36:06;102203.59;;;16.20;100.00
19600;BME280;9947;57.722;12.012;2022-08-30T08:38:33;102198.84;;;16.11;100.00
19600;BME280;9947;57.722;12.012;2022-08-30T08:41:05;102191.47;;;16.24;100.00
19600;BME280;9947;57.722;12.012;2022-08-30T08:43:36;102197.66;;;16.15;100.00
19600;BME280;9947;57.722;12.012;2022-08-30T08:46:09;102190.25;;;16.04;100.00
19600;BME280;9947;57.722;12.012;2022-08-30T08:48:40;102191.88;;;16.07;100.00
19600;BME280;9947;57.722;12.012;2022-08-30T08:51:11;102194.09;;;16.37;100.00
19600;BME280;9947;57.722;12.012;2022-08-30T08:53:59;102187.81;;;16.47;100.00
19600;BME280;9947;57.722;12.012;2022-08-30T08:56:27;102192.28;;;16.13;100.00
19600;BME280;9947;57.722;12.012;2022-08-30T08:58:56;102190.81;;;16.55;99.82
19600;BME280;9947;57.722;12.012;2022-08-30T09:01:25;102181.59;;;16.91;100.00
19600;BME280;9947;57.722;12.012;2022-08-30T09:03:55;102193.91;;;16.62;100.00
19600;BME280;9947;57.722;12.012;2022-08-30T09:06:37;102189.88;;;16.68;100.00
19600;BME280;9947;57.722;12.012;2022-08-30T09:09:06;102201.22;;;16.50;96.54
19600;BME280;9947;57.722;12.012;2022-08-30T09:11:35;102196.38;;;16.43;93.48
19600;BME280;9947;57.722;12.012;2022-08-30T09:14:05;102203.59;;;16.20;94.64
19600;BME280;9947;57.722;12.012;2022-08-30T09:16:47;102202.75;;;16.30;94.81
19600;BME280;9947;57.722;12.012;2022-08-30T09:19:39;102208.31;;;16.18;97.59
19600;BME280;9947;57.722;12.012;2022-08-30T09:22:19;102203.56;;;16.44;96.45
19600;BME280;9947;57.722;12.012;2022-08-30T09:24:49;102209.91;;;16.44;94.97
19600;BME280;9947;57.722;12.012;2022-08-30T09:27:24;102193.91;;;16.51;96.71
19600;BME280;9947;57.722;12.012;2022-08-30T09:29:56;102193.28;;;16.47;95.30
19600;BME280;9947;57.722;12.012;2022-08-30T09:32:25;102190.75;;;16.68;96.59
19600;BME280;9947;57.722;12.012;2022-08-30T09:34:53;102195.72;;;16.74;94.02
19600;BME280;9947;57.722;12.012;2022-08-30T09:37:39;102189.69;;;16.58;93.80
19600;BME280;9947;57.722;12.012;2022-08-30T09:40:09;102184.72;;;16.63;92.83
19600;BME280;9947;57.722;12.012;2022-08-30T09:42:37;102185.84;;;16.49;93.12
19600;BME280;9947;57.722;12.012;2022-08-30T09:45:16;102185.72;;;16.62;94.17
19600;BME280;9947;57.722;12.012;2022-08-30T09:47:44;102186.47;;;16.64;93.90
19600;BME280;9947;57.722;12.012;2022-08-30T09:50:12;102170.50;;;16.82;93.63
19600;BME280;9947;57.722;12.012;2022-08-30T09:53:02;102181.19;;;16.85;93.65
19600;BME280;9947;57.722;12.012;2022-08-30T09:55:46;102187.50;;;16.85;92.91
19600;BME280;9947;57.722;12.012;2022-08-30T09:58:21;102177.47;;;16.86;94.10
19600;BME280;9947;57.722;12.012;2022-08-30T10:00:58;102181.56;;;16.80;92.96
19600;BME280;9947;57.722;12.012;2022-08-30T10:03:35;102173.00;;;16.85;93.26
19600;BME280;9947;57.722;12.012;2022-08-30T10:06:09;102177.75;;;16.94;94.33
19600;BME280;9947;57.722;12.012;2022-08-30T10:08:47;102184.53;;;16.88;93.41
19600;BME280;9947;57.722;12.012;2022-08-30T10:11:22;102188.16;;;17.00;93.28
19600;BME280;9947;57.722;12.012;2022-08-30T10:14:13;102185.53;;;17.10;91.05
19600;BME280;9947;57.722;12.012;2022-08-30T10:16:58;102187.28;;;17.00;88.28
19600;BME280;9947;57.722;12.012;2022-08-30T10:19:39;102181.31;;;16.72;89.62
19600;BME280;9947;57.722;12.012;2022-08-30T10:22:11;102180.81;;;16.89;90.79
19600;BME280;9947;57.722;12.012;2022-08-30T10:24:43;102178.69;;;16.82;91.48
19600;BME280;9947;57.722;12.012;2022-08-30T10:27:15;102178.31;;;16.86;90.27
19600;BME280;9947;57.722;12.012;2022-08-30T10:29:46;102186.53;;;16.86;89.15
19600;BME280;9947;57.722;12.012;2022-08-30T10:32:19;102192.47;;;16.80;87.25
19600;BME280;9947;57.722;12.012;2022-08-30T10:34:50;102198.44;;;16.85;87.13
19600;BME280;9947;57.722;12.012;2022-08-30T10:37:23;102182.47;;;16.92;86.82
19600;BME280;9947;57.722;12.012;2022-08-30T10:39:53;102182.94;;;17.08;87.20
19600;BME280;9947;57.722;12.012;2022-08-30T10:42:27;102177.59;;;17.18;87.29
19600;BME280;9947;57.722;12.012;2022-08-30T10:45:02;102177.84;;;17.26;86.71
19600;BME280;9947;57.722;12.012;2022-08-30T10:47:38;102182.06;;;17.19;86.41
19600;BME280;9947;57.722;12.012;2022-08-30T10:50:12;102177.75;;;16.94;85.70
19600;BME280;9947;57.722;12.012;2022-08-30T10:52:46;102181.22;;;17.18;86.55
19600;BME280;9947;57.722;12.012;2022-08-30T10:55:20;102185.28;;;17.24;86.28
19600;BME280;9947;57.722;12.012;2022-08-30T10:57:49;102172.63;;;17.23;85.52
19600;BME280;9947;57.722;12.012;2022-08-30T11:00:23;102180.28;;;17.51;86.66
19600;BME280;9947;57.722;12.012;2022-08-30T11:03:34;102176.59;;;17.08;85.50
19600;BME280;9947;57.722;12.012;2022-08-30T11:06:13;102176.97;;;17.14;85.04
19600;BME280;9947;57.722;12.012;2022-08-30T11:08:59;102185.00;;;17.38;83.46
19600;BME280;9947;57.722;12.012;2022-08-30T11:11:37;102174.38;;;17.24;81.23
19600;BME280;9947;57.722;12.012;2022-08-30T11:14:10;102187.53;;;17.19;81.75
19600;BME280;9947;57.722;12.012;2022-08-30T11:16:41;102176.22;;;17.23;80.96
19600;BME280;9947;57.722;12.012;2022-08-30T11:19:18;102177.09;;;17.13;81.57
19600;BME280;9947;57.722;12.012;2022-08-30T11:21:47;102173.97;;;17.17;81.06
19600;BME280;9947;57.722;12.012;2022-08-30T11:24:15;102163.69;;;17.21;80.23
19600;BME280;9947;57.722;12.012;2022-08-30T11:27:01;102160.69;;;17.24;82.24
19600;BME280;9947;57.722;12.012;2022-08-30T11:29:41;102167.38;;;17.31;80.72
19600;BME280;9947;57.722;12.012;2022-08-30T11:35:41;102161.44;;;17.26;81.01
19600;BME280;9947;57.722;12.012;2022-08-30T11:39:03;102170.22;;;17.52;79.57
19600;BME280;9947;57.722;12.012;2022-08-30T11:41:33;102163.41;;;17.46;78.77
19600;BME280;9947;57.722;12.012;2022-08-30T11:46:55;102175.72;;;17.30;78.75
19600;BME280;9947;57.722;12.012;2022-08-30T11:49:49;102164.75;;;17.52;78.74
19600;BME280;9947;57.722;12.012;2022-08-30T11:52:34;102164.66;;;17.31;78.68
19600;BME280;9947;57.722;12.012;2022-08-30T11:55:45;102167.97;;;17.57;79.06
19600;BME280;9947;57.722;12.012;2022-08-30T11:58:24;102168.34;;;17.52;78.46
19600;BME280;9947;57.722;12.012;2022-08-30T12:01:28;102153.59;;;17.44;78.41
19600;BME280;9947;57.722;12.012;2022-08-30T12:04:03;102159.88;;;17.55;78.87
19600;BME280;9947;57.722;12.012;2022-08-30T12:06:47;102162.53;;;17.46;78.46
19600;BME280;9947;57.722;12.012;2022-08-30T12:12:48;102168.69;;;17.59;77.58
19600;BME280;9947;57.722;12.012;2022-08-30T12:18:41;102171.03;;;17.64;73.88
19600;BME280;9947;57.722;12.012;2022-08-30T12:21:13;102160.50;;;17.59;74.73
19600;BME280;9947;57.722;12.012;2022-08-30T12:23:52;102160.84;;;17.66;76.08
19600;BME280;9947;57.722;12.012;2022-08-30T12:26:31;102161.59;;;17.79;75.18
19600;BME280;9947;57.722;12.012;2022-08-30T12:29:15;102154.28;;;17.68;72.36
19600;BME280;9947;57.722;12.012;2022-08-30T12:31:46;102155.38;;;17.77;73.99
19600;BME280;9947;57.722;12.012;2022-08-30T12:34:21;102148.91;;;17.67;74.02
19600;BME280;9947;57.722;12.012;2022-08-30T12:36:54;102152.53;;;17.67;73.03
19600;BME280;9947;57.722;12.012;2022-08-30T12:39:27;102154.91;;;17.72;74.89
19600;BME280;9947;57.722;12.012;2022-08-30T12:42:11;102138.63;;;17.59;73.55
19600;BME280;9947;57.722;12.012;2022-08-30T12:44:40;102138.34;;;17.62;74.15
19600;BME280;9947;57.722;12.012;2022-08-30T12:47:12;102143.44;;;17.78;74.90
19600;BME280;9947;57.722;12.012;2022-08-30T12:49:44;102135.72;;;17.83;74.31
19600;BME280;9947;57.722;12.012;2022-08-30T12:52:21;102144.38;;;17.88;75.67
19600;BME280;9947;57.722;12.012;2022-08-30T12:54:51;102139.44;;;17.82;72.88
19600;BME280;9947;57.722;12.012;2022-08-30T12:57:36;102139.72;;;17.79;73.16
19600;BME280;9947;57.722;12.012;2022-08-30T13:00:06;102139.97;;;17.65;73.48
19600;BME280;9947;57.722;12.012;2022-08-30T13:02:46;102145.19;;;17.79;73.84
19600;BME280;9947;57.722;12.012;2022-08-30T13:05:40;102151.13;;;17.84;74.42
19600;BME280;9947;57.722;12.012;2022-08-30T13:08:20;102138.63;;;17.70;73.92
19600;BME280;9947;57.722;12.012;2022-08-30T13:10:52;102139.38;;;17.72;75.72
19600;BME280;9947;57.722;12.012;2022-08-30T13:13:33;102136.38;;;17.75;76.91
19600;BME280;9947;57.722;12.012;2022-08-30T13:16:24;102151.16;;;17.62;74.00
19600;BME280;9947;57.722;12.012;2022-08-30T13:18:53;102130.75;;;17.77;75.06
19600;BME280;9947;57.722;12.012;2022-08-30T13:21:24;102137.25;;;17.76;71.50
19600;BME280;9947;57.722;12.012;2022-08-30T13:23:56;102136.34;;;17.64;73.32
19600;BME280;9947;57.722;12.012;2022-08-30T13:26:23;102138.88;;;17.56;73.14